sensor_id;sensor_type;location;lat;lon;timestamp;P1;durP1;ratioP1;P2;durP2;ratioP2
74363;SDS011;62797;49.740;10.154;2023-02-28T00:00:19;7.63;;;4.88;;
74363;SDS011;62797;49.740;10.154;2023-02-28T00:05:12;11.85;;;4.82;;
74363;SDS011;62797;49.740;10.154;2023-02-28T00:07:40;9.38;;;5.50;;
74363;SDS011;62797;49.740;10.154;2023-02-28T00:10:07;8.20;;;4.93;;
74363;SDS011;62797;49.740;10.154;2023-02-28T00:12:37;9.13;;;5.40;;
74363;SDS011;62797;49.740;10.154;2023-02-28T00:15:07;9.73;;;5.28;;
74363;SDS011;62797;49.740;10.154;2023-02-28T00:17:34;13.50;;;6.45;;
74363;SDS011;62797;49.740;10.154;2023-02-28T00:20:00;14.00;;;7.07;;
74363;SDS011;62797;49.740;10.154;2023-02-28T00:22:27;8.30;;;5.22;;
74363;SDS011;62797;49.740;10.154;2023-02-28T00:24:53;10.38;;;5.20;;
74363;SDS011;62797;49.740;10.154;2023-02-28T00:27:18;9.70;;;5.72;;
74363;SDS011;62797;49.740;10.154;2023-02-28T00:29:46;10.90;;;5.60;;
74363;SDS011;62797;49.740;10.154;2023-02-28T00:32:11;8.18;;;4.65;;
74363;SDS011;62797;49.740;10.154;2023-02-28T00:34:38;9.18;;;5.68;;
74363;SDS011;62797;49.740;10.154;2023-02-28T00:37:05;8.93;;;5.45;;
74363;SDS011;62797;49.740;10.154;2023-02-28T00:39:33;8.88;;;5.32;;
74363;SDS011;62797;49.740;10.154;2023-02-28T00:41:59;9.25;;;5.15;;
74363;SDS011;62797;49.740;10.154;2023-02-28T00:44:25;10.50;;;5.50;;
74363;SDS011;62797;49.740;10.154;2023-02-28T00:46:51;11.75;;;6.10;;
74363;SDS011;62797;49.740;10.154;2023-02-28T00:49:21;13.55;;;6.53;;
74363;SDS011;62797;49.740;10.154;2023-02-28T00:51:48;12.25;;;6.45;;
74363;SDS011;62797;49.740;10.154;2023-02-28T00:54:13;13.38;;;7.85;;
74363;SDS011;62797;49.740;10.154;2023-02-28T00:56:39;12.27;;;6.18;;
74363;SDS011;62797;49.740;10.154;2023-02-28T00:59:05;10.93;;;6.47;;
74363;SDS011;62797;49.740;10.154;2023-02-28T01:01:30;11.95;;;7.43;;
74363;SDS011;62797;49.740;10.154;2023-02-28T01:03:57;16.45;;;7.90;;
74363;SDS011;62797;49.740;10.154;2023-02-28T01:06:22;16.27;;;7.40;;
74363;SDS011;62797;49.740;10.154;2023-02-28T01:08:48;12.68;;;7.05;;
74363;SDS011;62797;49.740;10.154;2023-02-28T01:11:15;16.05;;;8.10;;
74363;SDS011;62797;49.740;10.154;2023-02-28T01:13:42;9.90;;;5.93;;
74363;SDS011;62797;49.740;10.154;2023-02-28T01:16:11;11.68;;;6.45;;
74363;SDS011;62797;49.740;10.154;2023-02-28T01:18:37;14.43;;;7.18;;
74363;SDS011;62797;49.740;10.154;2023-02-28T01:21:07;11.57;;;7.00;;
74363;SDS011;62797;49.740;10.154;2023-02-28T01:23:36;9.40;;;6.05;;
74363;SDS011;62797;49.740;10.154;2023-02-28T01:26:09;16.08;;;8.02;;
74363;SDS011;62797;49.740;10.154;2023-02-28T01:28:38;13.65;;;7.47;;
74363;SDS011;62797;49.740;10.154;2023-02-28T01:33:30;12.05;;;7.20;;
74363;SDS011;62797;49.740;10.154;2023-02-28T01:36:00;14.70;;;7.40;;
74363;SDS011;62797;49.740;10.154;2023-02-28T01:38:30;10.45;;;6.35;;
74363;SDS011;62797;49.740;10.154;2023-02-28T01:40:57;13.38;;;7.47;;
74363;SDS011;62797;49.740;10.154;2023-02-28T01:43:27;13.15;;;7.68;;
74363;SDS011;62797;49.740;10.154;2023-02-28T01:45:55;12.20;;;7.78;;
74363;SDS011;62797;49.740;10.154;2023-02-28T01:48:24;16.88;;;9.18;;
74363;SDS011;62797;49.740;10.154;2023-02-28T01:50:52;11.90;;;7.00;;
74363;SDS011;62797;49.740;10.154;2023-02-28T01:53:23;13.30;;;7.75;;
74363;SDS011;62797;49.740;10.154;2023-02-28T01:55:56;12.48;;;7.03;;
74363;SDS011;62797;49.740;10.154;2023-02-28T01:58:22;19.15;;;7.32;;
74363;SDS011;62797;49.740;10.154;2023-02-28T02:00:48;11.57;;;7.28;;
74363;SDS011;62797;49.740;10.154;2023-02-28T02:03:14;17.27;;;8.00;;
74363;SDS011;62797;49.740;10.154;2023-02-28T02:05:44;11.77;;;6.53;;
74363;SDS011;62797;49.740;10.154;2023-02-28T02:08:20;12.65;;;6.60;;
74363;SDS011;62797;49.740;10.154;2023-02-28T02:10:50;15.23;;;6.53;;
74363;SDS011;62797;49.740;10.154;2023-02-28T02:22:19;11.77;;;6.20;;
74363;SDS011;62797;49.740;10.154;2023-02-28T02:25:04;9.90;;;5.90;;
74363;SDS011;62797;49.740;10.154;2023-02-28T02:36:18;15.70;;;6.25;;
74363;SDS011;62797;49.740;10.154;2023-02-28T02:41:39;12.15;;;8.23;;
74363;SDS011;62797;49.740;10.154;2023-02-28T02:44:17;12.70;;;6.70;;
74363;SDS011;62797;49.740;10.154;2023-02-28T02:46:54;14.30;;;7.68;;
74363;SDS011;62797;49.740;10.154;2023-02-28T02:49:28;14.52;;;7.82;;
74363;SDS011;62797;49.740;10.154;2023-02-28T02:51:56;13.20;;;6.85;;
74363;SDS011;62797;49.740;10.154;2023-02-28T02:54:30;18.08;;;8.98;;
74363;SDS011;62797;49.740;10.154;2023-02-28T02:56:59;12.98;;;7.35;;
74363;SDS011;62797;49.740;10.154;2023-02-28T02:59:28;11.77;;;6.60;;
74363;SDS011;62797;49.740;10.154;2023-02-28T03:01:57;17.48;;;8.57;;
74363;SDS011;62797;49.740;10.154;2023-02-28T03:04:28;12.60;;;7.85;;
74363;SDS011;62797;49.740;10.154;2023-02-28T03:06:58;12.20;;;7.03;;
74363;SDS011;62797;49.740;10.154;2023-02-28T03:09:24;10.68;;;6.65;;
74363;SDS011;62797;49.740;10.154;2023-02-28T03:11:50;13.55;;;6.35;;
74363;SDS011;62797;49.740;10.154;2023-02-28T03:20:01;14.35;;;8.35;;
74363;SDS011;62797;49.740;10.154;2023-02-28T03:22:39;17.33;;;7.97;;
74363;SDS011;62797;49.740;10.154;2023-02-28T03:31:00;14.05;;;7.95;;
74363;SDS011;62797;49.740;10.154;2023-02-28T03:33:42;14.13;;;7.25;;
74363;SDS011;62797;49.740;10.154;2023-02-28T03:36:20;13.85;;;6.82;;
74363;SDS011;62797;49.740;10.154;2023-02-28T03:41:17;14.32;;;7.80;;
74363;SDS011;62797;49.740;10.154;2023-02-28T03:43:50;15.98;;;7.85;;
74363;SDS011;62797;49.740;10.154;2023-02-28T03:46:24;11.50;;;7.22;;
74363;SDS011;62797;49.740;10.154;2023-02-28T03:48:54;15.68;;;7.50;;
74363;SDS011;62797;49.740;10.154;2023-02-28T03:51:25;16.63;;;8.65;;
74363;SDS011;62797;49.740;10.154;2023-02-28T03:53:55;14.82;;;8.40;;
74363;SDS011;62797;49.740;10.154;2023-02-28T03:56:32;17.02;;;6.53;;
74363;SDS011;62797;49.740;10.154;2023-02-28T03:59:13;15.73;;;8.15;;
74363;SDS011;62797;49.740;10.154;2023-02-28T04:01:47;12.13;;;7.38;;
74363;SDS011;62797;49.740;10.154;2023-02-28T04:04:14;14.40;;;8.38;;
74363;SDS011;62797;49.740;10.154;2023-02-28T04:06:41;16.77;;;8.07;;
74363;SDS011;62797;49.740;10.154;2023-02-28T04:09:08;17.45;;;8.35;;
74363;SDS011;62797;49.740;10.154;2023-02-28T04:11:37;12.68;;;7.20;;
74363;SDS011;62797;49.740;10.154;2023-02-28T04:14:08;10.88;;;5.78;;
74363;SDS011;62797;49.740;10.154;2023-02-28T04:16:35;18.83;;;8.27;;
74363;SDS011;62797;49.740;10.154;2023-02-28T04:19:03;13.38;;;7.00;;
74363;SDS011;62797;49.740;10.154;2023-02-28T04:21:31;15.23;;;7.15;;
74363;SDS011;62797;49.740;10.154;2023-02-28T04:23:58;26.35;;;7.70;;
74363;SDS011;62797;49.740;10.154;2023-02-28T04:26:32;19.45;;;6.25;;
74363;SDS011;62797;49.740;10.154;2023-02-28T04:29:01;14.70;;;7.18;;
74363;SDS011;62797;49.740;10.154;2023-02-28T04:31:29;13.38;;;7.07;;
74363;SDS011;62797;49.740;10.154;2023-02-28T04:33:57;16.58;;;8.43;;
74363;SDS011;62797;49.740;10.154;2023-02-28T04:36:22;15.95;;;8.05;;
74363;SDS011;62797;49.740;10.154;2023-02-28T04:38:48;15.65;;;7.95;;
74363;SDS011;62797;49.740;10.154;2023-02-28T04:41:15;16.13;;;8.82;;
74363;SDS011;62797;49.740;10.154;2023-02-28T04:46:06;14.63;;;7.45;;
74363;SDS011;62797;49.740;10.154;2023-02-28T04:48:33;14.93;;;7.45;;
74363;SDS011;62797;49.740;10.154;2023-02-28T04:51:04;19.17;;;8.27;;
74363;SDS011;62797;49.740;10.154;2023-02-28T04:53:32;21.95;;;9.07;;
74363;SDS011;62797;49.740;10.154;2023-02-28T04:55:58;17.70;;;8.52;;
74363;SDS011;62797;49.740;10.154;2023-02-28T04:58:24;22.15;;;8.02;;
74363;SDS011;62797;49.740;10.154;2023-02-28T05:00:51;19.45;;;8.70;;
74363;SDS011;62797;49.740;10.154;2023-02-28T05:03:17;20.10;;;8.80;;
74363;SDS011;62797;49.740;10.154;2023-02-28T05:05:43;14.85;;;7.60;;
74363;SDS011;62797;49.740;10.154;2023-02-28T05:08:11;16.02;;;7.93;;
74363;SDS011;62797;49.740;10.154;2023-02-28T05:10:36;15.90;;;8.43;;
74363;SDS011;62797;49.740;10.154;2023-02-28T05:13:02;18.15;;;9.35;;
74363;SDS011;62797;49.740;10.154;2023-02-28T05:15:27;24.10;;;8.93;;
74363;SDS011;62797;49.740;10.154;2023-02-28T05:17:53;20.98;;;10.63;;
74363;SDS011;62797;49.740;10.154;2023-02-28T05:20:19;18.88;;;8.15;;
74363;SDS011;62797;49.740;10.154;2023-02-28T05:22:45;18.67;;;8.90;;
74363;SDS011;62797;49.740;10.154;2023-02-28T05:25:12;15.93;;;8.70;;
74363;SDS011;62797;49.740;10.154;2023-02-28T05:27:41;16.02;;;8.68;;
74363;SDS011;62797;49.740;10.154;2023-02-28T05:30:07;16.23;;;8.15;;
74363;SDS011;62797;49.740;10.154;2023-02-28T05:32:36;15.45;;;8.48;;
74363;SDS011;62797;49.740;10.154;2023-02-28T05:35:03;16.40;;;7.65;;
74363;SDS011;62797;49.740;10.154;2023-02-28T05:37:29;22.58;;;10.38;;
74363;SDS011;62797;49.740;10.154;2023-02-28T05:39:55;18.38;;;9.10;;
74363;SDS011;62797;49.740;10.154;2023-02-28T05:42:20;18.40;;;8.02;;
74363;SDS011;62797;49.740;10.154;2023-02-28T05:44:46;16.20;;;8.63;;
74363;SDS011;62797;49.740;10.154;2023-02-28T05:47:12;18.15;;;8.77;;
74363;SDS011;62797;49.740;10.154;2023-02-28T05:49:40;17.95;;;9.07;;
74363;SDS011;62797;49.740;10.154;2023-02-28T05:52:06;17.90;;;8.32;;
74363;SDS011;62797;49.740;10.154;2023-02-28T05:54:32;21.38;;;10.43;;
74363;SDS011;62797;49.740;10.154;2023-02-28T05:56:58;25.17;;;10.85;;
74363;SDS011;62797;49.740;10.154;2023-02-28T05:59:23;15.50;;;8.45;;
74363;SDS011;62797;49.740;10.154;2023-02-28T06:01:49;19.38;;;10.07;;
74363;SDS011;62797;49.740;10.154;2023-02-28T06:04:15;18.60;;;8.90;;
74363;SDS011;62797;49.740;10.154;2023-02-28T06:06:47;23.02;;;9.77;;
74363;SDS011;62797;49.740;10.154;2023-02-28T06:09:14;15.25;;;7.88;;
74363;SDS011;62797;49.740;10.154;2023-02-28T06:11:40;18.73;;;9.15;;
74363;SDS011;62797;49.740;10.154;2023-02-28T06:14:05;17.65;;;10.40;;
74363;SDS011;62797;49.740;10.154;2023-02-28T06:16:33;24.73;;;10.18;;
74363;SDS011;62797;49.740;10.154;2023-02-28T06:19:01;24.33;;;12.57;;
74363;SDS011;62797;49.740;10.154;2023-02-28T06:21:28;28.83;;;12.70;;
74363;SDS011;62797;49.740;10.154;2023-02-28T06:23:54;24.23;;;11.50;;
74363;SDS011;62797;49.740;10.154;2023-02-28T06:26:21;25.45;;;11.85;;
74363;SDS011;62797;49.740;10.154;2023-02-28T06:28:47;29.70;;;11.98;;
74363;SDS011;62797;49.740;10.154;2023-02-28T06:31:14;21.48;;;11.30;;
74363;SDS011;62797;49.740;10.154;2023-02-28T06:33:41;21.80;;;10.38;;
74363;SDS011;62797;49.740;10.154;2023-02-28T06:36:07;17.30;;;9.88;;
74363;SDS011;62797;49.740;10.154;2023-02-28T06:38:34;22.35;;;9.75;;
74363;SDS011;62797;49.740;10.154;2023-02-28T06:43:31;21.63;;;9.63;;
74363;SDS011;62797;49.740;10.154;2023-02-28T06:45:59;17.83;;;9.85;;
74363;SDS011;62797;49.740;10.154;2023-02-28T06:48:26;16.10;;;8.90;;
74363;SDS011;62797;49.740;10.154;2023-02-28T06:51:00;17.48;;;8.90;;
74363;SDS011;62797;49.740;10.154;2023-02-28T06:53:27;16.83;;;8.55;;
74363;SDS011;62797;49.740;10.154;2023-02-28T06:55:52;22.02;;;10.38;;
74363;SDS011;62797;49.740;10.154;2023-02-28T06:58:20;21.40;;;8.88;;
74363;SDS011;62797;49.740;10.154;2023-02-28T07:00:50;16.60;;;8.68;;
74363;SDS011;62797;49.740;10.154;2023-02-28T07:03:16;22.23;;;10.43;;
74363;SDS011;62797;49.740;10.154;2023-02-28T07:05:43;21.52;;;9.80;;
74363;SDS011;62797;49.740;10.154;2023-02-28T07:08:09;17.70;;;9.70;;
74363;SDS011;62797;49.740;10.154;2023-02-28T07:10:39;15.35;;;9.02;;
74363;SDS011;62797;49.740;10.154;2023-02-28T07:13:06;18.95;;;9.15;;
74363;SDS011;62797;49.740;10.154;2023-02-28T07:15:32;18.67;;;9.68;;
74363;SDS011;62797;49.740;10.154;2023-02-28T07:17:58;17.67;;;8.13;;
74363;SDS011;62797;49.740;10.154;2023-02-28T07:20:24;17.40;;;9.30;;
74363;SDS011;62797;49.740;10.154;2023-02-28T07:22:50;19.40;;;10.38;;
74363;SDS011;62797;49.740;10.154;2023-02-28T07:25:24;20.90;;;8.60;;
74363;SDS011;62797;49.740;10.154;2023-02-28T07:27:51;17.40;;;8.48;;
74363;SDS011;62797;49.740;10.154;2023-02-28T07:30:18;21.88;;;9.43;;
74363;SDS011;62797;49.740;10.154;2023-02-28T07:32:44;16.15;;;8.35;;
74363;SDS011;62797;49.740;10.154;2023-02-28T07:35:10;18.27;;;9.63;;
74363;SDS011;62797;49.740;10.154;2023-02-28T07:37:36;20.15;;;9.18;;
74363;SDS011;62797;49.740;10.154;2023-02-28T07:40:05;21.60;;;11.45;;
74363;SDS011;62797;49.740;10.154;2023-02-28T07:42:35;20.60;;;9.50;;
74363;SDS011;62797;49.740;10.154;2023-02-28T07:45:03;22.27;;;10.30;;
74363;SDS011;62797;49.740;10.154;2023-02-28T07:47:29;15.82;;;8.00;;
74363;SDS011;62797;49.740;10.154;2023-02-28T07:49:58;27.70;;;9.75;;
74363;SDS011;62797;49.740;10.154;2023-02-28T07:52:23;18.52;;;8.88;;
74363;SDS011;62797;49.740;10.154;2023-02-28T07:54:49;20.85;;;10.10;;
74363;SDS011;62797;49.740;10.154;2023-02-28T07:57:16;23.73;;;8.95;;
74363;SDS011;62797;49.740;10.154;2023-02-28T07:59:43;17.15;;;9.25;;
74363;SDS011;62797;49.740;10.154;2023-02-28T08:02:15;16.50;;;8.73;;
74363;SDS011;62797;49.740;10.154;2023-02-28T08:04:42;22.40;;;10.60;;
74363;SDS011;62797;49.740;10.154;2023-02-28T08:07:08;20.55;;;10.05;;
74363;SDS011;62797;49.740;10.154;2023-02-28T08:09:38;19.13;;;9.15;;
74363;SDS011;62797;49.740;10.154;2023-02-28T08:12:04;20.13;;;9.70;;
74363;SDS011;62797;49.740;10.154;2023-02-28T08:14:30;16.77;;;8.95;;
74363;SDS011;62797;49.740;10.154;2023-02-28T08:16:56;23.35;;;10.13;;
74363;SDS011;62797;49.740;10.154;2023-02-28T08:19:22;22.10;;;10.27;;
74363;SDS011;62797;49.740;10.154;2023-02-28T08:21:47;16.27;;;8.50;;
74363;SDS011;62797;49.740;10.154;2023-02-28T08:24:13;18.48;;;8.68;;
74363;SDS011;62797;49.740;10.154;2023-02-28T08:26:38;13.35;;;8.00;;
74363;SDS011;62797;49.740;10.154;2023-02-28T08:29:04;18.83;;;9.35;;
74363;SDS011;62797;49.740;10.154;2023-02-28T08:31:30;20.98;;;9.30;;
74363;SDS011;62797;49.740;10.154;2023-02-28T08:33:56;18.48;;;9.27;;
74363;SDS011;62797;49.740;10.154;2023-02-28T08:36:23;25.60;;;10.73;;
74363;SDS011;62797;49.740;10.154;2023-02-28T08:38:49;20.13;;;9.77;;
74363;SDS011;62797;49.740;10.154;2023-02-28T08:41:15;21.60;;;9.43;;
74363;SDS011;62797;49.740;10.154;2023-02-28T08:43:40;20.17;;;9.90;;
74363;SDS011;62797;49.740;10.154;2023-02-28T08:46:06;22.13;;;10.40;;
74363;SDS011;62797;49.740;10.154;2023-02-28T08:48:33;16.65;;;7.88;;
74363;SDS011;62797;49.740;10.154;2023-02-28T08:51:01;15.10;;;8.10;;
74363;SDS011;62797;49.740;10.154;2023-02-28T08:53:29;16.98;;;9.02;;
74363;SDS011;62797;49.740;10.154;2023-02-28T08:55:55;14.80;;;8.38;;
74363;SDS011;62797;49.740;10.154;2023-02-28T08:58:27;17.58;;;9.52;;
74363;SDS011;62797;49.740;10.154;2023-02-28T09:00:53;20.80;;;8.88;;
74363;SDS011;62797;49.740;10.154;2023-02-28T09:03:19;17.80;;;9.90;;
74363;SDS011;62797;49.740;10.154;2023-02-28T09:05:55;17.55;;;8.38;;
74363;SDS011;62797;49.740;10.154;2023-02-28T09:08:23;17.33;;;8.48;;
74363;SDS011;62797;49.740;10.154;2023-02-28T09:10:50;19.05;;;8.75;;
74363;SDS011;62797;49.740;10.154;2023-02-28T09:13:17;19.85;;;9.38;;
74363;SDS011;62797;49.740;10.154;2023-02-28T09:18:09;17.80;;;9.48;;
74363;SDS011;62797;49.740;10.154;2023-02-28T09:20:37;21.15;;;11.32;;
74363;SDS011;62797;49.740;10.154;2023-02-28T09:23:03;18.20;;;9.77;;
74363;SDS011;62797;49.740;10.154;2023-02-28T09:25:29;16.90;;;8.70;;
74363;SDS011;62797;49.740;10.154;2023-02-28T09:27:54;15.53;;;8.57;;
74363;SDS011;62797;49.740;10.154;2023-02-28T09:30:20;20.97;;;10.27;;
74363;SDS011;62797;49.740;10.154;2023-02-28T09:32:45;20.10;;;11.07;;
74363;SDS011;62797;49.740;10.154;2023-02-28T09:35:17;18.98;;;10.30;;
74363;SDS011;62797;49.740;10.154;2023-02-28T09:37:44;20.20;;;9.75;;
74363;SDS011;62797;49.740;10.154;2023-02-28T09:42:37;16.42;;;9.57;;
74363;SDS011;62797;49.740;10.154;2023-02-28T09:45:08;18.00;;;8.73;;
74363;SDS011;62797;49.740;10.154;2023-02-28T09:47:47;26.92;;;10.98;;
74363;SDS011;62797;49.740;10.154;2023-02-28T09:50:22;21.10;;;10.40;;
74363;SDS011;62797;49.740;10.154;2023-02-28T09:53:02;24.25;;;11.65;;
74363;SDS011;62797;49.740;10.154;2023-02-28T09:55:37;23.08;;;10.55;;
74363;SDS011;62797;49.740;10.154;2023-02-28T09:58:11;53.42;;;10.77;;
74363;SDS011;62797;49.740;10.154;2023-02-28T10:00:49;23.45;;;11.05;;
74363;SDS011;62797;49.740;10.154;2023-02-28T10:03:47;27.10;;;12.65;;
74363;SDS011;62797;49.740;10.154;2023-02-28T10:06:29;23.13;;;10.90;;
74363;SDS011;62797;49.740;10.154;2023-02-28T10:09:11;20.05;;;9.90;;
74363;SDS011;62797;49.740;10.154;2023-02-28T10:11:42;24.10;;;11.65;;
74363;SDS011;62797;49.740;10.154;2023-02-28T10:14:22;15.55;;;9.10;;
74363;SDS011;62797;49.740;10.154;2023-02-28T10:16:55;19.00;;;10.18;;
74363;SDS011;62797;49.740;10.154;2023-02-28T10:22:22;19.00;;;11.07;;
74363;SDS011;62797;49.740;10.154;2023-02-28T10:24:55;20.73;;;10.65;;
74363;SDS011;62797;49.740;10.154;2023-02-28T10:27:26;19.38;;;8.60;;
74363;SDS011;62797;49.740;10.154;2023-02-28T10:29:58;16.30;;;9.40;;
74363;SDS011;62797;49.740;10.154;2023-02-28T10:32:32;20.42;;;9.40;;
74363;SDS011;62797;49.740;10.154;2023-02-28T10:35:07;18.50;;;9.30;;
74363;SDS011;62797;49.740;10.154;2023-02-28T10:37:40;23.30;;;10.05;;
74363;SDS011;62797;49.740;10.154;2023-02-28T10:40:25;24.17;;;10.60;;
74363;SDS011;62797;49.740;10.154;2023-02-28T10:45:34;16.48;;;9.63;;
74363;SDS011;62797;49.740;10.154;2023-02-28T10:48:10;15.52;;;9.90;;
74363;SDS011;62797;49.740;10.154;2023-02-28T10:50:53;17.77;;;8.40;;
74363;SDS011;62797;49.740;10.154;2023-02-28T10:53:25;17.92;;;9.57;;
74363;SDS011;62797;49.740;10.154;2023-02-28T10:56:04;14.73;;;7.57;;
74363;SDS011;62797;49.740;10.154;2023-02-28T11:01:38;15.70;;;8.48;;
74363;SDS011;62797;49.740;10.154;2023-02-28T11:04:19;15.70;;;8.75;;
74363;SDS011;62797;49.740;10.154;2023-02-28T11:06:56;14.90;;;8.90;;
74363;SDS011;62797;49.740;10.154;2023-02-28T11:14:31;19.27;;;10.27;;
74363;SDS011;62797;49.740;10.154;2023-02-28T11:17:11;17.20;;;8.77;;
74363;SDS011;62797;49.740;10.154;2023-02-28T11:19:46;16.95;;;8.98;;
74363;SDS011;62797;49.740;10.154;2023-02-28T11:22:21;18.52;;;10.25;;
74363;SDS011;62797;49.740;10.154;2023-02-28T11:24:55;17.40;;;8.65;;
74363;SDS011;62797;49.740;10.154;2023-02-28T11:27:25;20.52;;;10.90;;
74363;SDS011;62797;49.740;10.154;2023-02-28T11:29:54;18.98;;;9.85;;
74363;SDS011;62797;49.740;10.154;2023-02-28T11:32:21;18.97;;;10.33;;
74363;SDS011;62797;49.740;10.154;2023-02-28T11:35:10;20.65;;;9.30;;
74363;SDS011;62797;49.740;10.154;2023-02-28T11:37:38;15.70;;;7.90;;
74363;SDS011;62797;49.740;10.154;2023-02-28T11:40:14;21.45;;;11.23;;
74363;SDS011;62797;49.740;10.154;2023-02-28T11:47:51;15.63;;;9.77;;
74363;SDS011;62797;49.740;10.154;2023-02-28T11:53:12;15.80;;;9.10;;
74363;SDS011;62797;49.740;10.154;2023-02-28T11:56:20;11.95;;;8.32;;
74363;SDS011;62797;49.740;10.154;2023-02-28T12:01:36;20.17;;;10.88;;
74363;SDS011;62797;49.740;10.154;2023-02-28T12:10:26;16.85;;;9.23;;
74363;SDS011;62797;49.740;10.154;2023-02-28T12:13:03;12.93;;;8.80;;
74363;SDS011;62797;49.740;10.154;2023-02-28T12:18:52;21.10;;;10.68;;
74363;SDS011;62797;49.740;10.154;2023-02-28T12:26:43;15.48;;;8.65;;
74363;SDS011;62797;49.740;10.154;2023-02-28T12:31:41;17.80;;;9.30;;
74363;SDS011;62797;49.740;10.154;2023-02-28T12:34:25;18.25;;;10.10;;
74363;SDS011;62797;49.740;10.154;2023-02-28T12:36:58;17.52;;;9.93;;
74363;SDS011;62797;49.740;10.154;2023-02-28T12:39:30;17.70;;;10.70;;
74363;SDS011;62797;49.740;10.154;2023-02-28T12:42:10;17.52;;;10.27;;
74363;SDS011;62797;49.740;10.154;2023-02-28T12:44:52;16.88;;;9.02;;
74363;SDS011;62797;49.740;10.154;2023-02-28T12:47:23;16.13;;;10.00;;
74363;SDS011;62797;49.740;10.154;2023-02-28T12:49:50;13.18;;;8.82;;
74363;SDS011;62797;49.740;10.154;2023-02-28T12:52:35;15.88;;;8.43;;
74363;SDS011;62797;49.740;10.154;2023-02-28T13:03:43;20.35;;;9.70;;
74363;SDS011;62797;49.740;10.154;2023-02-28T13:09:13;17.73;;;9.98;;
74363;SDS011;62797;49.740;10.154;2023-02-28T13:19:56;17.52;;;9.40;;
74363;SDS011;62797;49.740;10.154;2023-02-28T13:22:46;20.77;;;11.18;;
74363;SDS011;62797;49.740;10.154;2023-02-28T13:25:59;20.10;;;10.88;;
74363;SDS011;62797;49.740;10.154;2023-02-28T13:28:07;14.45;;;8.77;;
74363;SDS011;62797;49.740;10.154;2023-02-28T13:33:21;15.38;;;8.93;;
74363;SDS011;62797;49.740;10.154;2023-02-28T13:35:50;14.73;;;9.38;;
74363;SDS011;62797;49.740;10.154;2023-02-28T13:38:33;14.48;;;8.90;;
74363;SDS011;62797;49.740;10.154;2023-02-28T13:44:15;11.52;;;8.20;;
74363;SDS011;62797;49.740;10.154;2023-02-28T13:49:26;14.93;;;9.20;;
74363;SDS011;62797;49.740;10.154;2023-02-28T13:52:02;14.93;;;9.55;;
74363;SDS011;62797;49.740;10.154;2023-02-28T13:54:45;14.35;;;8.18;;
74363;SDS011;62797;49.740;10.154;2023-02-28T14:05:33;19.48;;;9.07;;
74363;SDS011;62797;49.740;10.154;2023-02-28T14:08:04;14.38;;;9.60;;
74363;SDS011;62797;49.740;10.154;2023-02-28T14:10:47;15.27;;;10.57;;
74363;SDS011;62797;49.740;10.154;2023-02-28T14:16:10;14.63;;;8.77;;
74363;SDS011;62797;49.740;10.154;2023-02-28T14:18:42;14.90;;;8.77;;
74363;SDS011;62797;49.740;10.154;2023-02-28T14:21:29;14.40;;;9.23;;
74363;SDS011;62797;49.740;10.154;2023-02-28T14:32:14;18.00;;;8.73;;
74363;SDS011;62797;49.740;10.154;2023-02-28T14:37:42;17.73;;;10.35;;
74363;SDS011;62797;49.740;10.154;2023-02-28T14:40:15;16.08;;;9.55;;
74363;SDS011;62797;49.740;10.154;2023-02-28T14:42:48;12.38;;;8.95;;
74363;SDS011;62797;49.740;10.154;2023-02-28T14:45:22;14.90;;;10.25;;
74363;SDS011;62797;49.740;10.154;2023-02-28T14:47:51;19.13;;;9.30;;
74363;SDS011;62797;49.740;10.154;2023-02-28T14:50:21;17.70;;;8.55;;
74363;SDS011;62797;49.740;10.154;2023-02-28T14:52:51;13.40;;;8.50;;
74363;SDS011;62797;49.740;10.154;2023-02-28T14:55:18;9.50;;;7.03;;
74363;SDS011;62797;49.740;10.154;2023-02-28T14:57:52;16.58;;;7.60;;
74363;SDS011;62797;49.740;10.154;2023-02-28T15:02:56;13.30;;;8.45;;
74363;SDS011;62797;49.740;10.154;2023-02-28T15:05:26;15.00;;;8.98;;
74363;SDS011;62797;49.740;10.154;2023-02-28T15:08:01;19.58;;;9.45;;
74363;SDS011;62797;49.740;10.154;2023-02-28T15:11:00;17.23;;;8.98;;
74363;SDS011;62797;49.740;10.154;2023-02-28T15:13:42;15.05;;;9.10;;
74363;SDS011;62797;49.740;10.154;2023-02-28T15:16:20;16.23;;;9.00;;
74363;SDS011;62797;49.740;10.154;2023-02-28T15:18:51;14.45;;;8.25;;
74363;SDS011;62797;49.740;10.154;2023-02-28T15:21:27;12.18;;;8.20;;
74363;SDS011;62797;49.740;10.154;2023-02-28T15:23:58;13.18;;;8.07;;
74363;SDS011;62797;49.740;10.154;2023-02-28T15:26:34;15.05;;;9.32;;
74363;SDS011;62797;49.740;10.154;2023-02-28T15:29:23;12.82;;;8.57;;
74363;SDS011;62797;49.740;10.154;2023-02-28T15:32:00;12.63;;;8.15;;
74363;SDS011;62797;49.740;10.154;2023-02-28T15:34:38;14.32;;;8.75;;
74363;SDS011;62797;49.740;10.154;2023-02-28T15:39:51;12.85;;;8.20;;
74363;SDS011;62797;49.740;10.154;2023-02-28T15:44:44;12.90;;;8.00;;
74363;SDS011;62797;49.740;10.154;2023-02-28T15:47:20;15.67;;;9.77;;
74363;SDS011;62797;49.740;10.154;2023-02-28T15:52:24;16.45;;;9.70;;
74363;SDS011;62797;49.740;10.154;2023-02-28T15:54:58;19.92;;;10.00;;
74363;SDS011;62797;49.740;10.154;2023-02-28T15:57:32;13.05;;;8.30;;
74363;SDS011;62797;49.740;10.154;2023-02-28T16:00:00;18.10;;;8.50;;
74363;SDS011;62797;49.740;10.154;2023-02-28T16:02:37;21.33;;;10.60;;
74363;SDS011;62797;49.740;10.154;2023-02-28T16:07:31;18.65;;;8.80;;
74363;SDS011;62797;49.740;10.154;2023-02-28T16:12:25;19.05;;;9.55;;
74363;SDS011;62797;49.740;10.154;2023-02-28T16:14:56;23.20;;;11.25;;
74363;SDS011;62797;49.740;10.154;2023-02-28T16:17:28;23.77;;;13.38;;
74363;SDS011;62797;49.740;10.154;2023-02-28T16:19:56;25.60;;;12.30;;
74363;SDS011;62797;49.740;10.154;2023-02-28T16:22:22;16.52;;;10.25;;
74363;SDS011;62797;49.740;10.154;2023-02-28T16:24:48;16.98;;;9.50;;
74363;SDS011;62797;49.740;10.154;2023-02-28T16:27:20;15.20;;;8.40;;
74363;SDS011;62797;49.740;10.154;2023-02-28T16:29:52;15.50;;;9.18;;
74363;SDS011;62797;49.740;10.154;2023-02-28T16:32:18;18.33;;;8.82;;
74363;SDS011;62797;49.740;10.154;2023-02-28T16:34:44;14.10;;;8.77;;
74363;SDS011;62797;49.740;10.154;2023-02-28T16:37:14;16.07;;;9.90;;
74363;SDS011;62797;49.740;10.154;2023-02-28T16:39:41;17.35;;;9.93;;
74363;SDS011;62797;49.740;10.154;2023-02-28T16:42:10;19.45;;;9.73;;
74363;SDS011;62797;49.740;10.154;2023-02-28T16:44:41;22.33;;;10.82;;
74363;SDS011;62797;49.740;10.154;2023-02-28T16:47:08;18.50;;;9.93;;
74363;SDS011;62797;49.740;10.154;2023-02-28T16:49:35;18.13;;;9.65;;
74363;SDS011;62797;49.740;10.154;2023-02-28T16:52:01;18.13;;;10.70;;
74363;SDS011;62797;49.740;10.154;2023-02-28T16:54:27;19.05;;;10.48;;
74363;SDS011;62797;49.740;10.154;2023-02-28T16:56:53;17.37;;;10.13;;
74363;SDS011;62797;49.740;10.154;2023-02-28T16:59:22;20.83;;;9.80;;
74363;SDS011;62797;49.740;10.154;2023-02-28T17:01:50;20.75;;;9.77;;
74363;SDS011;62797;49.740;10.154;2023-02-28T17:04:16;16.52;;;8.80;;
74363;SDS011;62797;49.740;10.154;2023-02-28T17:06:42;16.15;;;9.57;;
74363;SDS011;62797;49.740;10.154;2023-02-28T17:09:18;20.13;;;11.30;;
74363;SDS011;62797;49.740;10.154;2023-02-28T17:11:45;27.23;;;12.25;;